This is the latest recevied weather packets stored in our database for station/object G4CVN. If no packets are shown the sender has not sent any weather packets the latest 10 day(s).
| Time | Temp. | Humidity | Pressure | Rain* | Wind** | Luminosity | Snow |
|---|---|---|---|---|---|---|---|
| 1777409157 | 11.11° C | 55% | 1026.9 hPa | 0 mm | - | 0 W/m² | - |
| 1777404917 | 12.22° C | 55% | 1026.3 hPa | 0 mm | - | 0 W/m² | - |
| 1777402517 | 13.33° C | 55% | 1026 hPa | 0 mm | - | 12 W/m² | - |
| 1777397117 | 15.56° C | 54% | 1025.5 hPa | 0 mm | - | 85 W/m² | - |
| 1777392337 | 16.67° C | 47% | 1025.3 hPa | 0 mm | - | 282 W/m² | - |
| 1777372537 | 12.78° C | 77% | 1027.8 hPa | 0 mm | - | 138 W/m² | - |
| 1777362917 | 11.67° C | 80% | 1027.3 hPa | 0 mm | - | 254 W/m² | - |
| 1777361717 | 11.11° C | 83% | 1027.3 hPa | 0 mm | - | 189 W/m² | - |
| 1777359317 | 10° C | 82% | 1027.4 hPa | 0 mm | - | 60 W/m² | - |
| 1777355117 | 10° C | 85% | 1026.9 hPa | 0 mm | - | 17 W/m² | - |
| 1777354517 | 10° C | 85% | 1026.8 hPa | 0 mm | - | 17 W/m² | - |
| 1777351517 | 10° C | 83% | 1026.7 hPa | 0 mm | - | 0 W/m² | - |
| 1777350917 | 10° C | 83% | 1026.7 hPa | 0 mm | - | 0 W/m² | - |
| 1777349717 | 10° C | 82% | 1026.7 hPa | 0 mm | - | 0 W/m² | - |
| 1777347317 | 10° C | 82% | 1026.8 hPa | 0 mm | - | 0 W/m² | - |
| 1777345517 | 10.56° C | 83% | 1026.8 hPa | 0 mm | - | 0 W/m² | - |
| 1777343757 | 10.56° C | 84% | 1026.9 hPa | 0 mm | - | 0 W/m² | - |
| 1777341917 | 10.56° C | 84% | 1026.9 hPa | 0 mm | - | 0 W/m² | - |
| 1777337717 | 11.67° C | 80% | 1026.8 hPa | 0 mm | - | 0 W/m² | - |
| 1777336517 | 12.22° C | 79% | 1026.8 hPa | 0 mm | - | 0 W/m² | - |
| 1777332917 | 12.78° C | 74% | 1026.8 hPa | 0 mm | - | 0 W/m² | - |
| 1777331117 | 12.78° C | 71% | 1026.7 hPa | 0 mm | - | 0 W/m² | - |
| 1777326317 | 11.67° C | 74% | 1026.5 hPa | 0 mm | - | 0 W/m² | - |
| 1777321517 | 13.33° C | 69% | 1025.8 hPa | 0 mm | - | 0 W/m² | - |
| 1777320318 | 13.89° C | 68% | 1025.9 hPa | 0 mm | - | 0 W/m² | - |
* Rain latest hour (hover to see other rain measurements)
** Current wind speed in m/s (hover to see current wind gust speed)